Terminal Aerodrome Forecast
Issued by NWS

Current Version | Previous Version | Text Only | Print | Product List | Glossary Off
Versions: 1 2 3 4 5 6 7 8 9 10 11 12 13 14 15 16 17

000
FTUS41 KPBZ 241906 AAA
TAFMGW
TAF AMD
KMGW 241906Z 2419/2518 10007KT 6SM -RA OVC035
     FM250600 07004KT P6SM VCSH OVC025
     FM250900 05003KT 5SM BR VCSH OVC015
     FM251200 05006KT 3SM BR VCSH OVC008=

USA.gov is the U.S. government's official web portal to all federal, state and local government web resources and services.